»·PEaware :: N91DM KLAS-KBUR

N91DM :: KLAS-KBUR

FLIGHT INFORMATION

Flight Status: Arrived
Operator: Privately registered:
United States
More flights under this callsign
Pilot: Jeff L. (31878)
Aircraft: CIRRUS SR-22
(SR22)
More flights by this aircraft type
Origin: KLAS McCarran Intl
United States
Destination: KBUR Bob Hope-Burbank
United States
More flights between these airports :: More routes between these airports
Route: +LAS V538 GFS V210 HEC V12 PMD V386 FIM
File this flight plan on PilotEdge
Remarks:
Altitude:
(Current/Filed)
12,000ft
Speed:
(Current/Filed)
150kts
Departed: 20-Nov-20 05:06 PM
Arrived: 20-Nov-20 06:43 PM
Distance/Time
Traveled:
194nm/1:36
Distance/Time
To Go:
Arrived

Flight Plot

Page will automatically refresh every two minutes.


Map Options




Map Legend


Flown Route
Filed Route
Departure Airport
Arrival Airport
Navaid (VOR, NDB)
Fix

Horizontal Profiles

Position Reports

Time Latitude Longitude Heading Altitude Ground
Speed
20-Nov-20 16:54 36.098161 -115.160316 126 2100ft 0kts
20-Nov-20 16:55 36.098161 -115.160316 126 2100ft 0kts
20-Nov-20 16:56 36.098161 -115.160316 126 2100ft 0kts
20-Nov-20 16:57 36.098161 -115.160316 126 2100ft 0kts
20-Nov-20 16:59 36.098161 -115.160316 126 2100ft 0kts
20-Nov-20 17:00 36.098161 -115.160316 126 2100ft 0kts
20-Nov-20 17:01 36.098161 -115.160316 126 2100ft 0kts
20-Nov-20 17:02 36.098100 -115.160089 76 2100ft 6kts
20-Nov-20 17:03 36.099086 -115.157994 117 2096ft 0kts
20-Nov-20 17:04 36.099086 -115.157994 117 2096ft 0kts
20-Nov-20 17:05 36.099082 -115.157984 115 2096ft 2kts
20-Nov-20 17:06 36.086895 -115.163720 203 2312ft 88kts
20-Nov-20 17:07 36.060762 -115.171096 185 3373ft 100kts
20-Nov-20 17:08 36.033251 -115.175375 187 4494ft 98kts
20-Nov-20 17:09 36.004508 -115.180125 187 5454ft 111kts
20-Nov-20 17:10 35.973992 -115.183444 192 6514ft 111kts
20-Nov-20 17:11 35.943730 -115.186406 181 7486ft 112kts
20-Nov-20 17:12 35.912356 -115.186557 175 8398ft 113kts
20-Nov-20 17:13 35.880627 -115.185290 176 9262ft 115kts
20-Nov-20 17:13 35.852014 -115.183844 175 9842ft 124kts
20-Nov-20 17:15 35.810742 -115.182265 175 10737ft 124kts
20-Nov-20 17:16 35.777559 -115.182490 176 11535ft 115kts
20-Nov-20 17:16 35.750394 -115.180172 176 11986ft 127kts
20-Nov-20 17:18 35.703831 -115.171659 174 12023ft 152kts
20-Nov-20 17:18 35.668897 -115.166372 189 12004ft 151kts
20-Nov-20 17:19 35.627967 -115.167564 186 11988ft 131kts
20-Nov-20 17:20 35.591240 -115.168361 185 12016ft 137kts
20-Nov-20 17:21 35.551363 -115.169096 185 12004ft 151kts
20-Nov-20 17:22 35.507940 -115.169872 185 12008ft 158kts
20-Nov-20 17:23 35.463782 -115.170657 184 11995ft 157kts
20-Nov-20 17:24 35.420058 -115.171408 185 12001ft 157kts
20-Nov-20 17:25 35.376247 -115.172196 184 12003ft 157kts
20-Nov-20 17:26 35.332411 -115.172940 184 11996ft 155kts
20-Nov-20 17:27 35.289103 -115.173689 185 11999ft 155kts
20-Nov-20 17:28 35.245870 -115.174448 185 11974ft 156kts
20-Nov-20 17:29 35.202393 -115.175193 184 11942ft 155kts
20-Nov-20 17:30 35.159058 -115.175953 184 11940ft 154kts
20-Nov-20 17:31 35.125874 -115.196044 258 11944ft 147kts
20-Nov-20 17:32 35.114343 -115.244094 248 11940ft 147kts
20-Nov-20 17:33 35.101817 -115.291862 251 11941ft 148kts
20-Nov-20 17:34 35.089463 -115.340178 252 11736ft 149kts
20-Nov-20 17:35 35.077197 -115.388264 252 11337ft 148kts
20-Nov-20 17:36 35.064869 -115.436545 252 10896ft 150kts
20-Nov-20 17:37 35.052271 -115.485820 252 10390ft 152kts
20-Nov-20 17:38 35.039611 -115.535184 252 10018ft 150kts
20-Nov-20 17:39 35.027054 -115.583963 252 10025ft 150kts
20-Nov-20 17:40 35.014530 -115.632606 252 10028ft 150kts
20-Nov-20 17:41 35.001827 -115.681842 252 10028ft 153kts
20-Nov-20 17:42 34.988900 -115.731822 252 10028ft 154kts
20-Nov-20 17:43 34.975846 -115.782165 251 10029ft 157kts
20-Nov-20 17:44 34.962629 -115.833094 251 10028ft 158kts
20-Nov-20 17:45 34.949353 -115.884164 251 10022ft 156kts
20-Nov-20 17:46 34.936116 -115.935023 251 10038ft 159kts
20-Nov-20 17:47 34.922665 -115.986503 251 10023ft 158kts
20-Nov-20 17:48 34.909261 -116.037703 252 10026ft 159kts
20-Nov-20 17:49 34.895741 -116.089261 252 10033ft 160kts
20-Nov-20 17:50 34.882121 -116.141113 252 10025ft 161kts
20-Nov-20 17:51 34.868433 -116.193160 252 10047ft 161kts
20-Nov-20 17:52 34.854756 -116.245038 252 10045ft 160kts
20-Nov-20 17:53 34.841032 -116.296994 252 10012ft 161kts
20-Nov-20 17:54 34.827179 -116.349315 252 9990ft 164kts
20-Nov-20 17:55 34.813114 -116.402368 252 9989ft 165kts
20-Nov-20 17:56 34.799006 -116.455619 253 9989ft 165kts
20-Nov-20 17:57 34.792763 -116.510809 260 9989ft 165kts
20-Nov-20 17:58 34.787066 -116.566115 262 9988ft 165kts
20-Nov-20 17:59 34.781561 -116.621609 263 9989ft 165kts
20-Nov-20 18:00 34.776080 -116.677278 263 9969ft 166kts
20-Nov-20 18:01 34.770594 -116.732924 263 9961ft 165kts
20-Nov-20 18:02 34.765092 -116.788358 263 9961ft 165kts
20-Nov-20 18:03 34.759556 -116.843914 263 9962ft 166kts
20-Nov-20 18:04 34.753972 -116.899730 263 9961ft 166kts
20-Nov-20 18:05 34.748336 -116.955683 263 9961ft 166kts
20-Nov-20 18:06 34.742699 -117.011519 263 9961ft 166kts
20-Nov-20 18:07 34.737004 -117.067535 263 9961ft 166kts
20-Nov-20 18:08 34.731317 -117.123328 264 9983ft 167kts
20-Nov-20 18:09 34.725509 -117.179981 262 9989ft 169kts
20-Nov-20 18:10 34.719687 -117.236497 261 9990ft 168kts
20-Nov-20 18:11 34.713827 -117.293128 261 9991ft 168kts
20-Nov-20 18:12 34.707818 -117.350962 261 9574ft 175kts
20-Nov-20 18:13 34.701711 -117.409333 261 9070ft 173kts
20-Nov-20 18:14 34.695587 -117.467719 261 8572ft 174kts
20-Nov-20 18:15 34.689446 -117.526040 261 8091ft 173kts
20-Nov-20 18:16 34.683509 -117.582123 261 7994ft 162kts
20-Nov-20 18:17 34.677816 -117.635589 261 7991ft 159kts
20-Nov-20 18:18 34.672136 -117.688827 261 7974ft 159kts
20-Nov-20 18:19 34.666400 -117.742252 261 7961ft 159kts
20-Nov-20 18:20 34.660674 -117.795449 261 7963ft 159kts
20-Nov-20 18:21 34.654904 -117.848754 261 7963ft 159kts
20-Nov-20 18:22 34.649113 -117.902078 261 7960ft 158kts
20-Nov-20 18:23 34.643328 -117.955098 261 7978ft 157kts
20-Nov-20 18:24 34.637536 -118.007999 261 7989ft 158kts
20-Nov-20 18:25 34.631400 -118.060944 258 7990ft 158kts
20-Nov-20 18:26 34.615617 -118.110564 250 7990ft 158kts
20-Nov-20 18:27 34.599358 -118.160183 247 7990ft 158kts
20-Nov-20 18:28 34.582944 -118.209638 246 7992ft 158kts
20-Nov-20 18:29 34.566295 -118.259564 246 7990ft 159kts
20-Nov-20 18:30 34.549699 -118.309259 246 8102ft 156kts
20-Nov-20 18:31 34.533192 -118.358568 246 8130ft 159kts
20-Nov-20 18:32 34.516442 -118.408523 246 8128ft 159kts
20-Nov-20 18:33 34.484889 -118.445332 209 7670ft 165kts
20-Nov-20 18:34 34.441798 -118.452290 166 7075ft 164kts
20-Nov-20 18:35 34.398995 -118.437126 153 6409ft 154kts
20-Nov-20 18:36 34.364954 -118.415987 150 5566ft 125kts
20-Nov-20 18:37 34.333773 -118.398299 158 4756ft 125kts
20-Nov-20 18:38 34.299888 -118.384283 166 3554ft 120kts
20-Nov-20 18:39 34.268343 -118.375967 164 2664ft 115kts
20-Nov-20 18:40 34.239692 -118.367952 164 1626ft 83kts
20-Nov-20 18:41 34.217903 -118.361959 167 930ft 76kts
20-Nov-20 18:42 34.203220 -118.358022 193 737ft 21kts
20-Nov-20 18:43 34.202773 -118.358838 256 737ft 0kts
20-Nov-20 18:44 34.199603 -118.358701 310 737ft 10kts
20-Nov-20 18:45 34.200207 -118.359460 167 737ft 0kts

Navigation Log

Ident Type
Flight plan parsing failed, navigation log unavailable